createdAt,value
2022-11-29T00:00:10.428Z,995.74
2022-11-29T00:01:10.413Z,995.78
2022-11-29T00:02:10.495Z,995.77
2022-11-29T00:03:11.712Z,995.81
2022-11-29T00:04:11.565Z,995.75
2022-11-29T00:05:11.561Z,995.72
2022-11-29T00:06:11.524Z,995.76
2022-11-29T00:07:11.512Z,995.73
2022-11-29T00:08:11.503Z,995.71
2022-11-29T00:09:11.627Z,995.74
2022-11-29T00:10:11.498Z,995.75
2022-11-29T00:11:11.483Z,995.70
2022-11-29T00:12:11.482Z,995.70
2022-11-29T00:13:18.198Z,995.66
2022-11-29T00:14:11.491Z,995.66
2022-11-29T00:15:11.452Z,995.66
2022-11-29T00:16:11.485Z,995.72
2022-11-29T00:17:11.435Z,995.72
2022-11-29T00:18:11.423Z,995.65
2022-11-29T00:19:11.440Z,995.66
2022-11-29T00:20:11.410Z,995.60
2022-11-29T00:21:11.402Z,995.64
2022-11-29T00:22:11.391Z,995.64
2022-11-29T00:23:11.380Z,995.64
2022-11-29T00:24:11.401Z,995.59
2022-11-29T00:25:11.366Z,995.62
2022-11-29T00:26:11.366Z,995.62
2022-11-29T00:27:11.350Z,995.57
2022-11-29T00:28:11.339Z,995.53
2022-11-29T00:29:11.361Z,995.56
2022-11-29T00:30:11.323Z,995.54
2022-11-29T00:31:11.336Z,995.57
2022-11-29T00:32:12.309Z,995.58
2022-11-29T00:33:11.294Z,995.51
2022-11-29T00:34:11.324Z,995.60
2022-11-29T00:35:11.300Z,995.59
2022-11-29T00:36:11.268Z,995.54
2022-11-29T00:37:11.270Z,995.59
2022-11-29T00:38:11.270Z,995.63
2022-11-29T00:39:11.271Z,995.63
2022-11-29T00:40:12.251Z,995.57
2022-11-29T00:41:11.240Z,995.60
2022-11-29T00:42:11.237Z,995.59
2022-11-29T00:43:11.223Z,995.52
2022-11-29T00:44:16.796Z,995.58
2022-11-29T00:45:13.211Z,995.57
2022-11-29T00:46:11.224Z,995.56
2022-11-29T00:47:11.188Z,995.57
2022-11-29T00:48:11.183Z,995.52
2022-11-29T00:49:11.204Z,995.56
2022-11-29T00:50:11.165Z,995.56
2022-11-29T00:51:25.705Z,995.64
2022-11-29T00:52:11.150Z,995.50
2022-11-29T00:53:11.144Z,995.49
2022-11-29T00:54:11.159Z,995.58
2022-11-29T00:55:11.119Z,995.60
2022-11-29T00:56:11.112Z,995.64
2022-11-29T00:57:11.106Z,995.61
2022-11-29T00:58:11.103Z,995.63
2022-11-29T00:59:11.122Z,995.70
2022-11-29T01:00:13.709Z,995.66
2022-11-29T01:01:11.111Z,995.63
2022-11-29T01:02:11.096Z,995.64
2022-11-29T01:03:11.060Z,995.66
2022-11-29T01:04:11.081Z,995.60
2022-11-29T01:05:11.042Z,995.70
2022-11-29T01:06:11.044Z,995.75
2022-11-29T01:07:11.024Z,995.61
2022-11-29T01:08:11.027Z,995.60
2022-11-29T01:09:11.036Z,995.60
2022-11-29T01:10:11.005Z,995.61
2022-11-29T01:11:11.550Z,995.62
2022-11-29T01:12:10.973Z,995.61
2022-11-29T01:13:10.980Z,995.63
2022-11-29T01:14:10.997Z,995.59
2022-11-29T01:15:10.953Z,995.55
2022-11-29T01:16:10.949Z,995.66
2022-11-29T01:17:10.939Z,995.61
2022-11-29T01:18:10.937Z,995.63
2022-11-29T01:19:10.948Z,995.67
2022-11-29T01:20:10.906Z,995.58
2022-11-29T01:21:10.906Z,995.58
2022-11-29T01:22:10.892Z,995.58
2022-11-29T01:23:10.882Z,995.63
2022-11-29T01:24:10.905Z,995.65
2022-11-29T01:25:10.864Z,995.64
2022-11-29T01:26:10.857Z,995.71
2022-11-29T01:27:10.860Z,995.69
2022-11-29T01:28:10.844Z,995.72
2022-11-29T01:29:10.983Z,995.71
2022-11-29T01:31:05.601Z,995.79
2022-11-29T01:31:10.864Z,995.76
2022-11-29T01:32:10.812Z,995.73
2022-11-29T01:33:10.802Z,995.77
2022-11-29T01:34:11.000Z,995.80
2022-11-29T01:35:10.798Z,995.77
2022-11-29T01:36:10.785Z,995.81
2022-11-29T01:37:10.772Z,995.80
2022-11-29T01:38:10.765Z,995.78
2022-11-29T01:39:11.035Z,995.77
2022-11-29T01:40:10.754Z,995.85
2022-11-29T01:41:10.740Z,995.80
2022-11-29T01:42:10.727Z,995.81
2022-11-29T01:43:10.716Z,995.78
2022-11-29T01:44:10.772Z,995.78
2022-11-29T01:45:10.702Z,995.90
2022-11-29T01:46:10.734Z,995.79
2022-11-29T01:47:10.696Z,995.84
2022-11-29T01:48:10.679Z,995.81
2022-11-29T01:49:10.706Z,995.81
2022-11-29T01:50:10.661Z,995.86
2022-11-29T01:51:10.652Z,995.81
2022-11-29T01:52:45.884Z,995.85
2022-11-29T01:53:10.680Z,995.84
2022-11-29T01:54:10.626Z,995.86
2022-11-29T01:55:10.655Z,995.84
2022-11-29T01:56:10.651Z,995.89
2022-11-29T01:57:10.606Z,995.79
2022-11-29T01:58:10.604Z,995.84
2022-11-29T01:59:10.585Z,995.81
2022-11-29T02:00:10.611Z,995.77
2022-11-29T02:01:10.628Z,995.79
2022-11-29T02:02:10.618Z,995.77
2022-11-29T02:03:10.577Z,995.81
2022-11-29T02:04:10.549Z,995.77
2022-11-29T02:05:10.569Z,995.80
2022-11-29T02:06:10.531Z,995.78
2022-11-29T02:07:10.522Z,995.78
2022-11-29T02:08:10.516Z,995.78
2022-11-29T02:09:10.506Z,995.81
2022-11-29T02:10:10.534Z,995.78
2022-11-29T02:11:10.489Z,995.81
2022-11-29T02:12:10.482Z,995.80
2022-11-29T02:13:10.477Z,995.81
2022-11-29T02:14:10.463Z,995.81
2022-11-29T02:15:10.507Z,995.83
2022-11-29T02:16:10.534Z,995.88
2022-11-29T02:17:13.215Z,995.83
2022-11-29T02:18:10.439Z,995.81
2022-11-29T02:19:10.427Z,995.84
2022-11-29T02:20:10.436Z,995.82
2022-11-29T02:21:10.468Z,995.79
2022-11-29T02:22:10.397Z,995.87
2022-11-29T02:23:10.443Z,995.86
2022-11-29T02:24:10.377Z,995.86
2022-11-29T02:25:10.388Z,995.85
2022-11-29T02:26:10.358Z,995.83
2022-11-29T02:27:10.356Z,995.87
2022-11-29T02:28:10.347Z,995.81
2022-11-29T02:29:10.343Z,995.81
2022-11-29T02:30:10.347Z,995.79
2022-11-29T02:31:10.373Z,995.78
2022-11-29T02:32:10.309Z,995.81
2022-11-29T02:33:10.305Z,995.81
2022-11-29T02:34:10.288Z,995.84
2022-11-29T02:35:10.321Z,995.76
2022-11-29T02:36:10.337Z,995.84
2022-11-29T02:37:11.824Z,995.80
2022-11-29T02:38:11.257Z,995.79
2022-11-29T02:39:10.255Z,995.78
2022-11-29T02:40:43.453Z,995.80
2022-11-29T02:41:10.230Z,995.71
2022-11-29T02:42:10.234Z,995.77
2022-11-29T02:43:10.228Z,995.78
2022-11-29T02:44:10.221Z,995.78
2022-11-29T02:45:10.219Z,995.78
2022-11-29T02:46:10.274Z,995.83
2022-11-29T02:47:10.187Z,995.85
2022-11-29T02:48:10.179Z,995.79
2022-11-29T02:49:10.165Z,995.81
2022-11-29T02:50:10.157Z,995.82
2022-11-29T02:51:10.365Z,995.84
2022-11-29T02:52:10.153Z,995.78
2022-11-29T02:53:10.139Z,995.80
2022-11-29T02:54:10.133Z,995.81
2022-11-29T02:55:10.124Z,995.78
2022-11-29T02:56:10.435Z,995.83
2022-11-29T02:57:10.111Z,995.76
2022-11-29T02:58:10.094Z,995.81
2022-11-29T02:59:10.096Z,995.77
2022-11-29T03:00:10.089Z,995.79
2022-11-29T03:01:10.141Z,995.79
2022-11-29T03:02:10.112Z,995.82
2022-11-29T03:03:10.071Z,995.82
2022-11-29T03:04:10.042Z,995.83
2022-11-29T03:05:10.031Z,995.87
2022-11-29T03:06:10.062Z,995.86
2022-11-29T03:07:10.018Z,995.92
2022-11-29T03:08:10.005Z,995.89
2022-11-29T03:09:09.998Z,995.91
2022-11-29T03:10:09.991Z,995.92
2022-11-29T03:11:10.017Z,995.93
2022-11-29T03:12:09.973Z,995.90
2022-11-29T03:13:09.967Z,995.91
2022-11-29T03:14:09.957Z,995.88
2022-11-29T03:15:09.955Z,995.97
2022-11-29T03:16:10.007Z,995.91
2022-11-29T03:17:09.931Z,995.98
2022-11-29T03:18:09.933Z,995.93
2022-11-29T03:19:09.920Z,996.02
2022-11-29T03:20:09.904Z,995.98
2022-11-29T03:21:09.928Z,995.95
2022-11-29T03:22:09.894Z,996.01
2022-11-29T03:23:09.883Z,996.00
2022-11-29T03:24:09.878Z,996.00
2022-11-29T03:25:09.872Z,996.03
2022-11-29T03:26:09.884Z,996.02
2022-11-29T03:27:09.848Z,996.06
2022-11-29T03:28:09.850Z,995.97
2022-11-29T03:29:09.832Z,995.99
2022-11-29T03:30:09.825Z,996.04
2022-11-29T03:31:10.044Z,996.03
2022-11-29T03:32:09.813Z,996.07
2022-11-29T03:33:09.803Z,996.05
2022-11-29T03:34:09.790Z,996.00
2022-11-29T03:35:09.786Z,996.10
2022-11-29T03:36:09.785Z,996.06
2022-11-29T03:37:09.801Z,996.04
2022-11-29T03:38:09.755Z,996.05
2022-11-29T03:39:09.759Z,996.08
2022-11-29T03:40:09.732Z,996.07
2022-11-29T03:41:09.763Z,996.07
2022-11-29T03:42:09.731Z,996.07
2022-11-29T03:43:09.723Z,996.08
2022-11-29T03:44:09.705Z,996.07
2022-11-29T03:45:09.699Z,996.17
2022-11-29T03:46:09.727Z,996.12
2022-11-29T03:47:09.712Z,996.15
2022-11-29T03:48:09.672Z,996.14
2022-11-29T03:49:09.674Z,996.10
2022-11-29T03:50:09.664Z,996.06
2022-11-29T03:51:09.651Z,996.13
2022-11-29T03:52:09.655Z,996.18
2022-11-29T03:53:10.631Z,996.15
2022-11-29T03:54:09.614Z,996.14
2022-11-29T03:55:09.620Z,996.14
2022-11-29T03:56:09.605Z,996.17
2022-11-29T03:57:09.632Z,996.18
2022-11-29T03:58:09.589Z,996.21
2022-11-29T03:59:09.589Z,996.21
2022-11-29T04:00:09.580Z,996.23
2022-11-29T04:01:09.627Z,996.18
2022-11-29T04:02:09.579Z,996.21
2022-11-29T04:03:24.221Z,996.14
2022-11-29T04:04:09.536Z,996.19
2022-11-29T04:05:09.531Z,996.14
2022-11-29T04:06:09.530Z,996.13
2022-11-29T04:07:09.539Z,996.14
2022-11-29T04:08:09.507Z,996.15
2022-11-29T04:09:09.495Z,996.11
2022-11-29T04:10:09.489Z,996.11
2022-11-29T04:11:09.480Z,996.17
2022-11-29T04:12:09.501Z,996.18
2022-11-29T04:13:09.476Z,996.11
2022-11-29T04:14:09.463Z,996.11
2022-11-29T04:15:14.128Z,996.10
2022-11-29T04:16:11.488Z,996.13
2022-11-29T04:17:09.457Z,996.14
2022-11-29T04:18:09.418Z,996.16
2022-11-29T04:19:09.426Z,996.15
2022-11-29T04:20:09.411Z,996.12
2022-11-29T04:21:09.398Z,996.16
2022-11-29T04:22:09.423Z,996.15
2022-11-29T04:23:09.382Z,996.09
2022-11-29T04:24:09.368Z,996.11
2022-11-29T04:25:09.364Z,996.11
2022-11-29T04:26:09.353Z,996.11
2022-11-29T04:27:09.386Z,996.17
2022-11-29T04:28:09.336Z,996.14
2022-11-29T04:29:09.330Z,996.18
2022-11-29T04:30:09.319Z,996.20
2022-11-29T04:31:09.365Z,996.19
2022-11-29T04:32:09.337Z,996.24
2022-11-29T04:33:09.297Z,996.25
2022-11-29T04:34:09.288Z,996.25
2022-11-29T04:35:09.277Z,996.23
2022-11-29T04:36:09.269Z,996.25
2022-11-29T04:37:09.294Z,996.28
2022-11-29T04:38:09.253Z,996.22
2022-11-29T04:39:09.245Z,996.30
2022-11-29T04:40:09.240Z,996.25
2022-11-29T04:41:09.224Z,996.29
2022-11-29T04:42:09.260Z,996.21
2022-11-29T04:43:09.236Z,996.23
2022-11-29T04:44:11.725Z,996.30
2022-11-29T04:45:09.211Z,996.30
2022-11-29T04:46:09.217Z,996.31
2022-11-29T04:47:10.198Z,996.32
2022-11-29T04:48:09.176Z,996.26
2022-11-29T04:49:09.165Z,996.33
2022-11-29T04:50:09.185Z,996.32
2022-11-29T04:51:09.154Z,996.37
2022-11-29T04:52:09.134Z,996.30
2022-11-29T04:53:09.125Z,996.37
2022-11-29T04:54:09.134Z,996.36
2022-11-29T04:55:09.393Z,996.36
2022-11-29T04:56:09.108Z,996.43
2022-11-29T04:57:09.110Z,996.39
2022-11-29T04:58:09.101Z,996.42
2022-11-29T04:59:09.077Z,996.39
2022-11-29T05:00:09.133Z,996.44
2022-11-29T05:01:09.059Z,996.36
2022-11-29T05:02:09.052Z,996.43
2022-11-29T05:03:09.111Z,996.42
2022-11-29T05:04:09.027Z,996.42
2022-11-29T05:05:10.072Z,996.44
2022-11-29T05:06:09.017Z,996.45
2022-11-29T05:07:09.009Z,996.47
2022-11-29T05:08:08.997Z,996.48
2022-11-29T05:09:08.996Z,996.49
2022-11-29T05:10:09.025Z,996.53
2022-11-29T05:11:08.979Z,996.51
2022-11-29T05:12:08.964Z,996.50
2022-11-29T05:13:29.179Z,996.55
2022-11-29T05:14:08.952Z,996.51
2022-11-29T05:15:08.943Z,996.58
2022-11-29T05:16:09.040Z,996.56
2022-11-29T05:17:08.946Z,996.55
2022-11-29T05:18:08.932Z,996.56
2022-11-29T05:19:08.924Z,996.56
2022-11-29T05:20:08.911Z,996.54
2022-11-29T05:21:08.925Z,996.61
2022-11-29T05:22:08.895Z,996.55
2022-11-29T05:23:08.891Z,996.59
2022-11-29T05:24:08.867Z,996.53
2022-11-29T05:25:08.885Z,996.56
2022-11-29T05:26:08.918Z,996.58
2022-11-29T05:27:08.853Z,996.59
2022-11-29T05:28:10.432Z,996.60
2022-11-29T05:29:09.844Z,996.61
2022-11-29T05:30:08.841Z,996.58
2022-11-29T05:31:08.878Z,996.58
2022-11-29T05:32:08.808Z,996.63
2022-11-29T05:33:08.806Z,996.65
2022-11-29T05:34:08.792Z,996.61
2022-11-29T05:35:08.786Z,996.62
2022-11-29T05:36:08.804Z,996.64
2022-11-29T05:37:56.820Z,996.66
2022-11-29T05:38:08.754Z,996.68
2022-11-29T05:39:08.760Z,996.67
2022-11-29T05:40:08.740Z,996.70
2022-11-29T05:41:08.762Z,996.69
2022-11-29T05:42:08.733Z,996.70
2022-11-29T05:43:08.740Z,996.72
2022-11-29T05:44:08.710Z,996.76
2022-11-29T05:45:09.703Z,996.74
2022-11-29T05:46:08.749Z,996.78
2022-11-29T05:47:08.690Z,996.74
2022-11-29T05:48:08.672Z,996.80
2022-11-29T05:49:08.675Z,996.71
2022-11-29T05:50:08.672Z,996.82
2022-11-29T05:51:08.681Z,996.79
2022-11-29T05:52:08.639Z,996.79
2022-11-29T05:53:08.638Z,996.85
2022-11-29T05:54:08.632Z,996.79
2022-11-29T05:55:08.621Z,996.80
2022-11-29T05:56:08.643Z,996.81
2022-11-29T05:57:08.604Z,996.85
2022-11-29T05:58:08.590Z,996.89
2022-11-29T05:59:09.584Z,996.91
2022-11-29T06:00:08.576Z,996.82
2022-11-29T06:01:08.600Z,996.83
2022-11-29T06:02:08.637Z,996.96
2022-11-29T06:03:08.600Z,997.00
2022-11-29T06:04:14.457Z,996.93
2022-11-29T06:05:10.543Z,996.88
2022-11-29T06:06:08.523Z,996.90
2022-11-29T06:07:08.562Z,997.00
2022-11-29T06:08:08.509Z,996.99
2022-11-29T06:09:08.496Z,996.98
2022-11-29T06:10:08.501Z,996.99
2022-11-29T06:11:08.506Z,996.99
2022-11-29T06:12:08.510Z,997.07
2022-11-29T06:13:08.465Z,997.07
2022-11-29T06:14:08.457Z,997.08
2022-11-29T06:15:08.456Z,997.08
2022-11-29T06:16:08.488Z,997.12
2022-11-29T06:17:08.475Z,997.15
2022-11-29T06:18:08.425Z,997.17
2022-11-29T06:19:08.415Z,997.20
2022-11-29T06:20:08.415Z,997.24
2022-11-29T06:21:08.409Z,997.22
2022-11-29T06:22:08.419Z,997.20
2022-11-29T06:23:08.384Z,997.27
2022-11-29T06:24:08.379Z,997.25
2022-11-29T06:25:08.368Z,997.27
2022-11-29T06:26:08.366Z,997.28
2022-11-29T06:27:08.372Z,997.27
2022-11-29T06:28:08.346Z,997.25
2022-11-29T06:29:08.329Z,997.23
2022-11-29T06:30:08.312Z,997.33
2022-11-29T06:31:09.369Z,997.29
2022-11-29T06:32:08.333Z,997.24
2022-11-29T06:33:08.299Z,997.25
2022-11-29T06:34:08.288Z,997.25
2022-11-29T06:35:08.310Z,997.33
2022-11-29T06:36:08.283Z,997.33
2022-11-29T06:37:08.292Z,997.29
2022-11-29T06:38:08.250Z,997.33
2022-11-29T06:39:08.261Z,997.31
2022-11-29T06:40:08.239Z,997.32
2022-11-29T06:41:08.241Z,997.27
2022-11-29T06:42:08.249Z,997.28
2022-11-29T06:43:08.212Z,997.35
2022-11-29T06:44:08.210Z,997.28
2022-11-29T06:45:08.200Z,997.32
2022-11-29T06:49:19.842Z,997.31
2022-11-29T06:50:19.866Z,997.32
2022-11-29T06:51:19.905Z,997.29
2022-11-29T06:52:19.881Z,997.33
2022-11-29T06:53:19.837Z,997.30
2022-11-29T06:54:19.841Z,997.30
2022-11-29T06:55:19.814Z,997.35
2022-11-29T06:56:19.813Z,997.34
2022-11-29T06:57:19.861Z,997.36
2022-11-29T06:58:19.796Z,997.36
2022-11-29T06:59:19.782Z,997.38
2022-11-29T07:00:22.594Z,997.36
2022-11-29T07:01:19.829Z,997.42
2022-11-29T07:02:19.827Z,997.39
2022-11-29T07:03:19.752Z,997.43
2022-11-29T07:04:19.743Z,997.38
2022-11-29T07:05:19.731Z,997.41
2022-11-29T07:06:19.728Z,997.43
2022-11-29T07:07:19.819Z,997.42
2022-11-29T07:08:19.716Z,997.45
2022-11-29T07:09:20.864Z,997.45
2022-11-29T07:10:20.852Z,997.47
2022-11-29T07:11:20.833Z,997.46
2022-11-29T07:12:20.862Z,997.49
2022-11-29T07:13:20.825Z,997.45
2022-11-29T07:15:15.498Z,997.50
2022-11-29T07:15:20.808Z,997.47
2022-11-29T07:16:20.824Z,997.53
2022-11-29T07:17:20.778Z,997.46
2022-11-29T07:18:20.804Z,997.48
2022-11-29T07:19:20.774Z,997.45
2022-11-29T07:20:20.761Z,997.51
2022-11-29T07:21:20.744Z,997.56
2022-11-29T07:22:20.747Z,997.56
2022-11-29T07:23:20.779Z,997.58
2022-11-29T07:24:20.727Z,997.57
2022-11-29T07:25:20.717Z,997.57
2022-11-29T07:26:20.714Z,997.65
2022-11-29T07:27:20.702Z,997.58
2022-11-29T07:28:20.726Z,997.64
2022-11-29T07:29:20.697Z,997.62
2022-11-29T07:30:20.679Z,997.57
2022-11-29T07:31:20.710Z,997.61
2022-11-29T07:32:20.660Z,997.60
2022-11-29T07:33:20.685Z,997.58
2022-11-29T07:34:20.661Z,997.66
2022-11-29T07:35:20.643Z,997.64
2022-11-29T07:36:20.633Z,997.61
2022-11-29T07:37:20.627Z,997.63
2022-11-29T07:38:20.649Z,997.71
2022-11-29T07:39:20.629Z,997.68
2022-11-29T07:40:20.606Z,997.68
2022-11-29T07:41:20.591Z,997.67
2022-11-29T07:42:27.147Z,997.69
2022-11-29T07:43:20.615Z,997.66
2022-11-29T07:44:20.561Z,997.67
2022-11-29T07:45:20.570Z,997.69
2022-11-29T07:46:20.611Z,997.72
2022-11-29T07:47:20.541Z,997.77
2022-11-29T07:48:20.555Z,997.74
2022-11-29T07:49:21.523Z,997.72
2022-11-29T07:50:20.524Z,997.71
2022-11-29T07:51:20.521Z,997.75
2022-11-29T07:52:20.518Z,997.76
2022-11-29T07:53:20.494Z,997.72
2022-11-29T07:54:20.527Z,997.71
2022-11-29T07:55:20.477Z,997.74
2022-11-29T07:56:20.476Z,997.77
2022-11-29T07:57:20.467Z,997.74
2022-11-29T07:58:20.534Z,997.72
2022-11-29T07:59:20.471Z,997.74
2022-11-29T08:00:20.449Z,997.77
2022-11-29T08:01:20.491Z,997.76
2022-11-29T08:02:20.470Z,997.82
2022-11-29T08:03:20.410Z,997.76
2022-11-29T08:04:20.440Z,997.72
2022-11-29T08:05:20.400Z,997.75
2022-11-29T08:06:20.400Z,997.82
2022-11-29T08:07:20.427Z,997.81
2022-11-29T08:08:20.367Z,997.79
2022-11-29T08:09:20.386Z,997.78
2022-11-29T08:10:20.644Z,997.80
2022-11-29T08:11:20.356Z,997.77
2022-11-29T08:12:20.337Z,997.77
2022-11-29T08:13:20.336Z,997.80
2022-11-29T08:14:20.364Z,997.86
2022-11-29T08:15:20.317Z,997.82
2022-11-29T08:16:20.338Z,997.81
2022-11-29T08:17:20.314Z,997.80
2022-11-29T08:18:20.291Z,997.83
2022-11-29T08:19:20.308Z,997.82
2022-11-29T08:20:20.273Z,997.81
2022-11-29T08:21:20.263Z,997.86
2022-11-29T08:22:20.256Z,997.88
2022-11-29T08:23:20.252Z,997.86
2022-11-29T08:24:20.274Z,997.86
2022-11-29T08:25:20.233Z,997.85
2022-11-29T08:26:20.227Z,997.85
2022-11-29T08:27:20.226Z,997.97
2022-11-29T08:28:20.208Z,997.94
2022-11-29T08:29:20.221Z,997.96
2022-11-29T08:30:21.185Z,998.02
2022-11-29T08:31:20.200Z,998.03
2022-11-29T08:32:20.164Z,998.04
2022-11-29T08:33:20.161Z,998.01
2022-11-29T08:34:20.177Z,998.01
2022-11-29T08:35:20.145Z,998.02
2022-11-29T08:36:20.145Z,998.03
2022-11-29T08:37:20.151Z,998.02
2022-11-29T08:38:20.123Z,998.06
2022-11-29T08:39:20.154Z,998.07
2022-11-29T08:40:20.111Z,998.04
2022-11-29T08:41:20.104Z,998.02
2022-11-29T08:42:20.102Z,998.03
2022-11-29T08:43:20.087Z,998.05
2022-11-29T08:44:20.101Z,998.07
2022-11-29T08:45:20.063Z,998.06
2022-11-29T08:46:20.092Z,998.04
2022-11-29T08:47:20.047Z,998.11
2022-11-29T08:48:20.043Z,998.11
2022-11-29T08:49:20.064Z,998.13
2022-11-29T08:50:20.028Z,998.10
2022-11-29T08:51:53.499Z,998.14
2022-11-29T08:52:19.999Z,998.11
2022-11-29T08:53:20.994Z,998.16
2022-11-29T08:54:20.055Z,998.17
2022-11-29T08:55:20.001Z,998.16
2022-11-29T08:58:21.959Z,998.12
2022-11-29T08:59:19.990Z,998.22
2022-11-29T09:00:19.943Z,998.22
2022-11-29T09:01:20.009Z,998.19
2022-11-29T09:02:20.002Z,998.22
2022-11-29T09:03:19.946Z,998.23
2022-11-29T09:04:19.950Z,998.21
2022-11-29T09:05:20.907Z,998.25
2022-11-29T09:06:19.898Z,998.24
2022-11-29T09:07:19.912Z,998.27
2022-11-29T09:08:19.882Z,998.30
2022-11-29T09:09:19.881Z,998.31
2022-11-29T09:10:19.901Z,998.29
2022-11-29T09:11:19.859Z,998.34
2022-11-29T09:12:19.851Z,998.31
2022-11-29T09:13:19.845Z,998.35
2022-11-29T09:14:19.829Z,998.36
2022-11-29T09:15:19.859Z,998.34
2022-11-29T09:16:19.864Z,998.36
2022-11-29T09:17:19.818Z,998.41
2022-11-29T09:18:19.815Z,998.35
2022-11-29T09:19:19.786Z,998.42
2022-11-29T09:20:19.814Z,998.41
2022-11-29T09:21:19.815Z,998.44
2022-11-29T09:22:19.764Z,998.44
2022-11-29T09:23:19.755Z,998.42
2022-11-29T09:24:19.755Z,998.43
2022-11-29T09:25:19.781Z,998.49
2022-11-29T09:26:19.775Z,998.48
2022-11-29T09:27:19.721Z,998.47
2022-11-29T09:28:19.718Z,998.49
2022-11-29T09:29:19.707Z,998.48
2022-11-29T09:30:23.824Z,998.43
2022-11-29T09:31:20.730Z,998.42
2022-11-29T09:32:19.702Z,998.47
2022-11-29T09:33:19.685Z,998.44
2022-11-29T09:34:19.670Z,998.48
2022-11-29T09:35:19.702Z,998.45
2022-11-29T09:36:23.758Z,998.49
2022-11-29T09:37:20.645Z,998.55
2022-11-29T09:38:21.004Z,998.55
2022-11-29T09:39:19.625Z,998.53
2022-11-29T09:40:19.663Z,998.52
2022-11-29T09:41:19.609Z,998.50
2022-11-29T09:42:19.602Z,998.55
2022-11-29T09:43:19.599Z,998.55
2022-11-29T09:44:19.598Z,998.52
2022-11-29T09:45:19.613Z,998.54
2022-11-29T09:46:19.609Z,998.55
2022-11-29T09:47:19.564Z,998.59
2022-11-29T09:48:19.556Z,998.56
2022-11-29T09:49:19.553Z,998.55
2022-11-29T09:50:19.661Z,998.58
2022-11-29T09:51:19.537Z,998.62
2022-11-29T09:52:19.523Z,998.59
2022-11-29T09:53:19.510Z,998.63
2022-11-29T09:54:19.503Z,998.63
2022-11-29T09:55:19.539Z,998.65
2022-11-29T09:56:19.520Z,998.58
2022-11-29T09:57:19.483Z,998.60
2022-11-29T09:58:19.469Z,998.62
2022-11-29T09:59:19.474Z,998.64
2022-11-29T10:00:19.563Z,998.62
2022-11-29T10:01:19.499Z,998.64
2022-11-29T10:02:21.571Z,998.66
2022-11-29T10:03:20.432Z,998.63
2022-11-29T10:04:19.425Z,998.73
2022-11-29T10:05:19.451Z,998.71
2022-11-29T10:08:40.347Z,998.73
2022-11-29T10:09:40.349Z,998.72
2022-11-29T10:10:40.369Z,998.68
2022-11-29T10:11:41.484Z,998.78
2022-11-29T10:12:41.474Z,998.68
2022-11-29T10:13:41.465Z,998.65
2022-11-29T10:14:41.473Z,998.72
2022-11-29T10:15:41.507Z,998.72
2022-11-29T10:16:41.520Z,998.70
2022-11-29T10:17:41.433Z,998.71
2022-11-29T10:18:41.423Z,998.73
2022-11-29T10:19:41.423Z,998.69
2022-11-29T10:20:45.948Z,998.72
2022-11-29T10:21:43.402Z,998.72
2022-11-29T10:22:41.385Z,998.73
2022-11-29T10:23:41.378Z,998.71
2022-11-29T10:24:42.570Z,998.71
2022-11-29T10:25:41.396Z,998.67
2022-11-29T10:26:41.372Z,998.70
2022-11-29T10:27:41.381Z,998.70
2022-11-29T10:28:42.331Z,998.70
2022-11-29T10:29:41.343Z,998.73
2022-11-29T10:30:41.480Z,998.71
2022-11-29T10:31:41.311Z,998.74
2022-11-29T10:32:41.307Z,998.70
2022-11-29T10:33:41.316Z,998.68
2022-11-29T10:34:41.287Z,998.69
2022-11-29T10:35:41.312Z,998.75
2022-11-29T10:36:41.272Z,998.68
2022-11-29T10:37:41.259Z,998.66
2022-11-29T10:38:41.254Z,998.74
2022-11-29T10:39:41.245Z,998.66
2022-11-29T10:40:41.271Z,998.66
2022-11-29T10:41:41.232Z,998.69
2022-11-29T10:42:41.224Z,998.70
2022-11-29T10:43:41.213Z,998.73
2022-11-29T10:44:41.208Z,998.65
2022-11-29T10:45:41.267Z,998.63
2022-11-29T10:46:41.218Z,998.67
2022-11-29T10:47:41.184Z,998.67
2022-11-29T10:48:41.166Z,998.68
2022-11-29T10:49:41.164Z,998.68
2022-11-29T10:50:41.157Z,998.67
2022-11-29T10:51:41.324Z,998.71
2022-11-29T10:52:41.142Z,998.77
2022-11-29T10:53:41.126Z,998.77
2022-11-29T10:54:41.120Z,998.78
2022-11-29T10:55:41.112Z,998.71
2022-11-29T10:56:41.150Z,998.72
2022-11-29T10:57:41.086Z,998.74
2022-11-29T10:58:41.084Z,998.76
2022-11-29T10:59:41.079Z,998.67
2022-11-29T11:00:41.066Z,998.75
2022-11-29T11:01:41.133Z,998.76
2022-11-29T11:02:41.052Z,998.68
2022-11-29T11:03:41.044Z,998.78
2022-11-29T11:04:41.032Z,998.71
2022-11-29T11:05:55.679Z,998.73
2022-11-29T11:06:41.026Z,998.67
2022-11-29T11:07:41.067Z,998.74
2022-11-29T11:08:41.011Z,998.68
2022-11-29T11:09:40.994Z,998.66
2022-11-29T11:10:40.985Z,998.69
2022-11-29T11:11:41.003Z,998.67
2022-11-29T11:12:40.960Z,998.72
2022-11-29T11:13:59.849Z,998.69
2022-11-29T11:14:40.946Z,998.79
2022-11-29T11:15:40.936Z,998.77
2022-11-29T11:16:40.998Z,998.67
2022-11-29T11:17:40.929Z,998.76
2022-11-29T11:18:40.913Z,998.74
2022-11-29T11:19:40.902Z,998.74
2022-11-29T11:20:40.893Z,998.75
2022-11-29T11:21:40.916Z,998.78
2022-11-29T11:22:40.881Z,998.74
2022-11-29T11:23:42.876Z,998.78
2022-11-29T11:24:41.904Z,998.76
2022-11-29T11:25:40.882Z,998.78
2022-11-29T11:26:40.871Z,998.79
2022-11-29T11:27:40.840Z,998.81
2022-11-29T11:28:40.831Z,998.77
2022-11-29T11:29:40.810Z,998.75
2022-11-29T11:30:41.867Z,998.75
2022-11-29T11:31:40.835Z,998.79
2022-11-29T11:32:40.797Z,998.85
2022-11-29T11:33:40.789Z,998.78
2022-11-29T11:34:40.781Z,998.85
2022-11-29T11:35:49.198Z,998.81
2022-11-29T11:36:40.800Z,998.85
2022-11-29T11:37:40.757Z,998.84
2022-11-29T11:38:40.761Z,998.79
2022-11-29T11:39:40.741Z,998.87
2022-11-29T11:40:40.785Z,998.85
2022-11-29T11:41:40.767Z,998.86
2022-11-29T11:42:40.730Z,998.84
2022-11-29T11:43:40.728Z,998.87
2022-11-29T11:44:48.449Z,998.79
2022-11-29T11:45:42.702Z,998.82
2022-11-29T11:46:40.761Z,998.85
2022-11-29T11:47:40.681Z,998.97
2022-11-29T11:48:40.677Z,998.97
2022-11-29T11:49:40.671Z,998.97
2022-11-29T11:50:40.663Z,998.94
2022-11-29T11:51:40.729Z,999.01
2022-11-29T11:52:42.874Z,998.95
2022-11-29T11:53:42.639Z,998.95
2022-11-29T11:54:40.622Z,999.01
2022-11-29T11:55:40.630Z,999.03
2022-11-29T11:56:40.665Z,999.04
2022-11-29T11:57:40.599Z,999.04
2022-11-29T11:58:40.602Z,999.03
2022-11-29T11:59:40.593Z,999.01
2022-11-29T12:01:02.819Z,999.07
2022-11-29T12:01:42.601Z,999.01
2022-11-29T12:02:40.836Z,999.01
2022-11-29T12:03:40.687Z,998.98
2022-11-29T12:04:40.543Z,998.98
2022-11-29T12:05:44.863Z,999.07
2022-11-29T12:06:42.572Z,999.05
2022-11-29T12:08:06.933Z,998.99
2022-11-29T12:08:42.567Z,999.07
2022-11-29T12:09:40.525Z,999.10
2022-11-29T12:10:40.541Z,999.07
2022-11-29T12:11:40.524Z,999.11
2022-11-29T12:12:40.489Z,999.14
2022-11-29T12:13:40.477Z,999.13
2022-11-29T12:14:40.471Z,999.15
2022-11-29T12:15:40.509Z,999.13
2022-11-29T12:16:40.480Z,999.15
2022-11-29T12:17:40.446Z,999.13
2022-11-29T12:18:40.440Z,999.14
2022-11-29T12:19:40.424Z,999.16
2022-11-29T12:20:40.422Z,999.09
2022-11-29T12:21:40.440Z,999.14
2022-11-29T12:22:43.918Z,999.16
2022-11-29T12:23:42.395Z,999.14
2022-11-29T12:24:40.400Z,999.21
2022-11-29T12:25:40.429Z,999.16
2022-11-29T12:26:57.573Z,999.16
2022-11-29T12:27:42.364Z,999.16
2022-11-29T12:28:40.353Z,999.19
2022-11-29T12:29:40.365Z,999.19
2022-11-29T12:30:40.333Z,999.20
2022-11-29T12:31:41.392Z,999.19
2022-11-29T12:32:40.319Z,999.23
2022-11-29T12:33:40.311Z,999.23
2022-11-29T12:34:43.012Z,999.24
2022-11-29T12:35:41.294Z,999.24